sensor_id;sensor_type;location;lat;lon;timestamp;pressure;altitude;pressure_sealevel;temperature;humidity
19096;BME280;9680;52.520;13.332;2023-07-29T00:01:03;100540.22;;;18.68;100.00
19096;BME280;9680;52.520;13.332;2023-07-29T00:03:30;100534.22;;;18.66;100.00
19096;BME280;9680;52.520;13.332;2023-07-29T00:05:57;100537.81;;;18.65;100.00
19096;BME280;9680;52.520;13.332;2023-07-29T00:08:24;100532.69;;;18.63;100.00
19096;BME280;9680;52.520;13.332;2023-07-29T00:10:51;100521.41;;;18.61;100.00
19096;BME280;9680;52.520;13.332;2023-07-29T00:13:19;100528.47;;;18.60;100.00
19096;BME280;9680;52.520;13.332;2023-07-29T00:15:45;100526.19;;;18.56;100.00
19096;BME280;9680;52.520;13.332;2023-07-29T00:18:12;100526.28;;;18.54;100.00
19096;BME280;9680;52.520;13.332;2023-07-29T00:20:39;100531.66;;;18.53;100.00
19096;BME280;9680;52.520;13.332;2023-07-29T00:23:06;100534.31;;;18.53;100.00
19096;BME280;9680;52.520;13.332;2023-07-29T00:25:33;100529.25;;;18.49;100.00
19096;BME280;9680;52.520;13.332;2023-07-29T00:27:59;100528.53;;;18.47;100.00
19096;BME280;9680;52.520;13.332;2023-07-29T00:30:27;100520.75;;;18.46;100.00
19096;BME280;9680;52.520;13.332;2023-07-29T00:32:54;100526.03;;;18.46;100.00
19096;BME280;9680;52.520;13.332;2023-07-29T00:35:21;100525.31;;;18.44;100.00
19096;BME280;9680;52.520;13.332;2023-07-29T00:37:48;100528.78;;;18.44;100.00
19096;BME280;9680;52.520;13.332;2023-07-29T00:40:18;100525.41;;;18.42;100.00
19096;BME280;9680;52.520;13.332;2023-07-29T00:42:47;100524.81;;;18.39;100.00
19096;BME280;9680;52.520;13.332;2023-07-29T00:45:14;100525.75;;;18.38;100.00
19096;BME280;9680;52.520;13.332;2023-07-29T00:47:42;100523.34;;;18.34;100.00
19096;BME280;9680;52.520;13.332;2023-07-29T00:50:11;100531.28;;;18.34;100.00
19096;BME280;9680;52.520;13.332;2023-07-29T00:52:38;100528.88;;;18.31;100.00
19096;BME280;9680;52.520;13.332;2023-07-29T00:55:06;100528.13;;;18.29;100.00
19096;BME280;9680;52.520;13.332;2023-07-29T00:57:33;100520.22;;;18.29;100.00
19096;BME280;9680;52.520;13.332;2023-07-29T01:00:02;100517.59;;;18.29;100.00
19096;BME280;9680;52.520;13.332;2023-07-29T01:02:30;100512.53;;;18.26;100.00
19096;BME280;9680;52.520;13.332;2023-07-29T01:04:59;100510.88;;;18.25;100.00
19096;BME280;9680;52.520;13.332;2023-07-29T01:07:30;100503.91;;;18.24;100.00
19096;BME280;9680;52.520;13.332;2023-07-29T01:10:02;100508.44;;;18.22;100.00
19096;BME280;9680;52.520;13.332;2023-07-29T01:12:36;100505.91;;;18.21;100.00
19096;BME280;9680;52.520;13.332;2023-07-29T01:15:13;100499.78;;;18.20;100.00
19096;BME280;9680;52.520;13.332;2023-07-29T01:17:46;100501.59;;;18.19;100.00
19096;BME280;9680;52.520;13.332;2023-07-29T01:20:16;100498.09;;;18.19;100.00
19096;BME280;9680;52.520;13.332;2023-07-29T01:22:45;100494.75;;;18.17;100.00
19096;BME280;9680;52.520;13.332;2023-07-29T01:25:14;100486.97;;;18.15;100.00
19096;BME280;9680;52.520;13.332;2023-07-29T01:27:41;100488.88;;;18.13;100.00
19096;BME280;9680;52.520;13.332;2023-07-29T01:30:09;100483.69;;;18.12;100.00
19096;BME280;9680;52.520;13.332;2023-07-29T01:32:42;100480.25;;;18.11;100.00
19096;BME280;9680;52.520;13.332;2023-07-29T01:35:18;100490.88;;;18.10;100.00
19096;BME280;9680;52.520;13.332;2023-07-29T01:37:49;100481.44;;;18.07;100.00
19096;BME280;9680;52.520;13.332;2023-07-29T01:40:21;100488.47;;;18.07;100.00
19096;BME280;9680;52.520;13.332;2023-07-29T01:42:48;100499.03;;;18.07;100.00
19096;BME280;9680;52.520;13.332;2023-07-29T01:45:15;100494.84;;;18.04;100.00
19096;BME280;9680;52.520;13.332;2023-07-29T01:47:42;100501.25;;;18.00;100.00
19096;BME280;9680;52.520;13.332;2023-07-29T01:50:09;100498.94;;;17.95;100.00
19096;BME280;9680;52.520;13.332;2023-07-29T01:52:36;100506.84;;;17.95;100.00
19096;BME280;9680;52.520;13.332;2023-07-29T01:55:04;100498.22;;;17.93;100.00
19096;BME280;9680;52.520;13.332;2023-07-29T01:57:32;100492.94;;;17.93;100.00
19096;BME280;9680;52.520;13.332;2023-07-29T01:59:58;100498.22;;;17.93;100.00
19096;BME280;9680;52.520;13.332;2023-07-29T02:02:25;100506.25;;;17.92;100.00
19096;BME280;9680;52.520;13.332;2023-07-29T02:04:52;100508.97;;;17.90;100.00
19096;BME280;9680;52.520;13.332;2023-07-29T02:07:21;100510.03;;;17.87;100.00
19096;BME280;9680;52.520;13.332;2023-07-29T02:09:48;100506.44;;;17.88;100.00
19096;BME280;9680;52.520;13.332;2023-07-29T02:12:14;100502.25;;;17.86;100.00
19096;BME280;9680;52.520;13.332;2023-07-29T02:14:42;100495.31;;;17.85;100.00
19096;BME280;9680;52.520;13.332;2023-07-29T02:17:09;100498.88;;;17.84;100.00
19096;BME280;9680;52.520;13.332;2023-07-29T02:19:36;100498.03;;;17.83;100.00
19096;BME280;9680;52.520;13.332;2023-07-29T02:22:03;100502.47;;;17.83;100.00
19096;BME280;9680;52.520;13.332;2023-07-29T02:24:30;100499.09;;;17.81;100.00
19096;BME280;9680;52.520;13.332;2023-07-29T02:26:56;100494.78;;;17.80;100.00
19096;BME280;9680;52.520;13.332;2023-07-29T02:29:23;100502.69;;;17.80;100.00
19096;BME280;9680;52.520;13.332;2023-07-29T02:31:52;100493.84;;;17.81;100.00
19096;BME280;9680;52.520;13.332;2023-07-29T02:34:23;100503.53;;;17.80;100.00
19096;BME280;9680;52.520;13.332;2023-07-29T02:36:52;100498.38;;;17.79;100.00
19096;BME280;9680;52.520;13.332;2023-07-29T02:39:20;100499.34;;;17.78;100.00
19096;BME280;9680;52.520;13.332;2023-07-29T02:41:51;100495.75;;;17.79;100.00
19096;BME280;9680;52.520;13.332;2023-07-29T02:44:21;100493.22;;;17.77;100.00
19096;BME280;9680;52.520;13.332;2023-07-29T02:49:53;100495.97;;;17.75;100.00
19096;BME280;9680;52.520;13.332;2023-07-29T02:52:21;100489.97;;;17.73;100.00
19096;BME280;9680;52.520;13.332;2023-07-29T02:54:54;100493.66;;;17.71;100.00
19096;BME280;9680;52.520;13.332;2023-07-29T02:57:21;100494.50;;;17.71;100.00
19096;BME280;9680;52.520;13.332;2023-07-29T02:59:47;100496.41;;;17.69;100.00
19096;BME280;9680;52.520;13.332;2023-07-29T03:02:20;100499.16;;;17.68;100.00
19096;BME280;9680;52.520;13.332;2023-07-29T03:04:52;100497.69;;;17.64;100.00
19096;BME280;9680;52.520;13.332;2023-07-29T03:07:22;100498.63;;;17.63;100.00
19096;BME280;9680;52.520;13.332;2023-07-29T03:09:54;100506.53;;;17.63;100.00
19096;BME280;9680;52.520;13.332;2023-07-29T03:12:25;100496.00;;;17.63;100.00
19096;BME280;9680;52.520;13.332;2023-07-29T03:14:53;100493.50;;;17.61;100.00
19096;BME280;9680;52.520;13.332;2023-07-29T03:17:23;100493.50;;;17.61;100.00
19096;BME280;9680;52.520;13.332;2023-07-29T03:19:50;100495.19;;;17.62;100.00
19096;BME280;9680;52.520;13.332;2023-07-29T03:22:22;100489.06;;;17.61;100.00
19096;BME280;9680;52.520;13.332;2023-07-29T03:24:54;100488.97;;;17.63;100.00
19096;BME280;9680;52.520;13.332;2023-07-29T03:27:30;100486.31;;;17.63;100.00
19096;BME280;9680;52.520;13.332;2023-07-29T03:29:57;100486.41;;;17.61;100.00
19096;BME280;9680;52.520;13.332;2023-07-29T03:32:28;100485.69;;;17.59;100.00
19096;BME280;9680;52.520;13.332;2023-07-29T03:34:55;100484.88;;;17.59;100.00
19096;BME280;9680;52.520;13.332;2023-07-29T03:37:22;100485.81;;;17.58;100.00
19096;BME280;9680;52.520;13.332;2023-07-29T03:39:56;100484.97;;;17.57;100.00
19096;BME280;9680;52.520;13.332;2023-07-29T03:42:23;100487.59;;;17.57;100.00
19096;BME280;9680;52.520;13.332;2023-07-29T03:44:52;100480.53;;;17.58;100.00
19096;BME280;9680;52.520;13.332;2023-07-29T03:47:22;100485.69;;;17.59;100.00
19096;BME280;9680;52.520;13.332;2023-07-29T03:49:55;100479.47;;;17.60;100.00
19096;BME280;9680;52.520;13.332;2023-07-29T03:52:40;100474.09;;;17.62;100.00
19096;BME280;9680;52.520;13.332;2023-07-29T03:55:15;100472.31;;;17.63;100.00
19096;BME280;9680;52.520;13.332;2023-07-29T03:57:52;100475.78;;;17.63;100.00
19096;BME280;9680;52.520;13.332;2023-07-29T04:00:24;100479.03;;;17.67;100.00
19096;BME280;9680;52.520;13.332;2023-07-29T04:02:51;100480.63;;;17.69;100.00
19096;BME280;9680;52.520;13.332;2023-07-29T04:05:25;100470.91;;;17.70;100.00
19096;BME280;9680;52.520;13.332;2023-07-29T04:07:52;100478.47;;;17.74;100.00
19096;BME280;9680;52.520;13.332;2023-07-29T04:10:19;100485.22;;;17.79;100.00
19096;BME280;9680;52.520;13.332;2023-07-29T04:12:49;100482.34;;;17.82;100.00
19096;BME280;9680;52.520;13.332;2023-07-29T04:15:16;100468.94;;;17.85;100.00
19096;BME280;9680;52.520;13.332;2023-07-29T04:17:43;100466.09;;;17.88;100.00
19096;BME280;9680;52.520;13.332;2023-07-29T04:20:10;100473.91;;;17.89;100.00
19096;BME280;9680;52.520;13.332;2023-07-29T04:22:39;100461.31;;;17.93;100.00
19096;BME280;9680;52.520;13.332;2023-07-29T04:25:06;100467.00;;;18.00;100.00
19096;BME280;9680;52.520;13.332;2023-07-29T04:27:33;100458.31;;;18.11;100.00
19096;BME280;9680;52.520;13.332;2023-07-29T04:30:00;100462.69;;;18.23;100.00
19096;BME280;9680;52.520;13.332;2023-07-29T04:32:27;100464.25;;;18.37;100.00
19096;BME280;9680;52.520;13.332;2023-07-29T04:34:53;100456.59;;;18.45;100.00
19096;BME280;9680;52.520;13.332;2023-07-29T04:37:21;100467.31;;;18.55;100.00
19096;BME280;9680;52.520;13.332;2023-07-29T04:39:49;100461.69;;;18.60;100.00
19096;BME280;9680;52.520;13.332;2023-07-29T04:42:15;100475.47;;;18.63;100.00
19096;BME280;9680;52.520;13.332;2023-07-29T04:44:42;100489.38;;;18.66;100.00
19096;BME280;9680;52.520;13.332;2023-07-29T04:47:09;100481.97;;;18.71;100.00
19096;BME280;9680;52.520;13.332;2023-07-29T04:49:36;100479.81;;;18.76;100.00
19096;BME280;9680;52.520;13.332;2023-07-29T04:52:03;100473.22;;;18.82;100.00
19096;BME280;9680;52.520;13.332;2023-07-29T04:54:30;100474.19;;;18.92;100.00
19096;BME280;9680;52.520;13.332;2023-07-29T04:56:58;100470.28;;;18.98;100.00
19096;BME280;9680;52.520;13.332;2023-07-29T04:59:26;100467.88;;;19.06;100.00
19096;BME280;9680;52.520;13.332;2023-07-29T05:01:53;100469.41;;;19.20;100.00
19096;BME280;9680;52.520;13.332;2023-07-29T05:04:20;100460.53;;;19.32;100.00
19096;BME280;9680;52.520;13.332;2023-07-29T05:06:47;100459.91;;;19.40;99.75
19096;BME280;9680;52.520;13.332;2023-07-29T05:09:15;100467.00;;;19.40;98.68
19096;BME280;9680;52.520;13.332;2023-07-29T05:11:42;100464.47;;;19.38;98.30
19096;BME280;9680;52.520;13.332;2023-07-29T05:14:12;100470.97;;;19.34;98.46
19096;BME280;9680;52.520;13.332;2023-07-29T05:16:39;100458.00;;;19.31;98.38
19096;BME280;9680;52.520;13.332;2023-07-29T05:19:06;100455.13;;;19.34;98.78
19096;BME280;9680;52.520;13.332;2023-07-29T05:21:33;100456.69;;;19.37;98.61
19096;BME280;9680;52.520;13.332;2023-07-29T05:24:01;100454.13;;;19.46;98.58
19096;BME280;9680;52.520;13.332;2023-07-29T05:26:28;100448.47;;;19.62;98.63
19096;BME280;9680;52.520;13.332;2023-07-29T05:28:55;100458.63;;;19.90;98.17
19096;BME280;9680;52.520;13.332;2023-07-29T05:31:23;100460.59;;;20.09;96.41
19096;BME280;9680;52.520;13.332;2023-07-29T05:33:50;100461.88;;;20.15;95.53
19096;BME280;9680;52.520;13.332;2023-07-29T05:36:17;100466.34;;;20.14;94.59
19096;BME280;9680;52.520;13.332;2023-07-29T05:38:44;100463.34;;;20.07;94.15
19096;BME280;9680;52.520;13.332;2023-07-29T05:41:11;100462.44;;;19.97;94.04
19096;BME280;9680;52.520;13.332;2023-07-29T05:43:38;100468.34;;;19.89;94.13
19096;BME280;9680;52.520;13.332;2023-07-29T05:46:05;100468.09;;;19.81;94.25
19096;BME280;9680;52.520;13.332;2023-07-29T05:48:33;100467.38;;;19.79;94.72
19096;BME280;9680;52.520;13.332;2023-07-29T05:51:02;100465.34;;;19.83;94.87
19096;BME280;9680;52.520;13.332;2023-07-29T05:53:30;100463.06;;;19.89;94.84
19096;BME280;9680;52.520;13.332;2023-07-29T05:55:57;100462.56;;;19.96;94.62
19096;BME280;9680;52.520;13.332;2023-07-29T05:58:24;100456.19;;;19.98;94.38
19096;BME280;9680;52.520;13.332;2023-07-29T06:00:51;100441.38;;;20.07;94.21
19096;BME280;9680;52.520;13.332;2023-07-29T06:03:19;100438.06;;;20.15;93.67
19096;BME280;9680;52.520;13.332;2023-07-29T06:05:48;100436.63;;;20.22;93.67
19096;BME280;9680;52.520;13.332;2023-07-29T06:08:15;100428.88;;;20.30;93.14
19096;BME280;9680;52.520;13.332;2023-07-29T06:10:42;100429.44;;;20.34;92.97
19096;BME280;9680;52.520;13.332;2023-07-29T06:13:08;100421.97;;;20.39;92.73
19096;BME280;9680;52.520;13.332;2023-07-29T06:15:35;100420.03;;;20.41;92.36
19096;BME280;9680;52.520;13.332;2023-07-29T06:18:02;100423.00;;;20.48;92.30
19096;BME280;9680;52.520;13.332;2023-07-29T06:20:29;100425.97;;;20.55;92.32
19096;BME280;9680;52.520;13.332;2023-07-29T06:22:57;100426.97;;;20.63;91.82
19096;BME280;9680;52.520;13.332;2023-07-29T06:25:24;100426.69;;;20.66;90.89
19096;BME280;9680;52.520;13.332;2023-07-29T06:27:50;100424.38;;;20.73;91.29
19096;BME280;9680;52.520;13.332;2023-07-29T06:30:17;100429.34;;;20.88;91.05
19096;BME280;9680;52.520;13.332;2023-07-29T06:32:44;100428.41;;;20.99;90.54
19096;BME280;9680;52.520;13.332;2023-07-29T06:35:11;100430.81;;;21.12;89.91
19096;BME280;9680;52.520;13.332;2023-07-29T06:37:37;100432.69;;;21.21;89.20
19096;BME280;9680;52.520;13.332;2023-07-29T06:40:07;100430.47;;;21.26;88.69
19096;BME280;9680;52.520;13.332;2023-07-29T06:42:34;100436.63;;;21.36;88.01
19096;BME280;9680;52.520;13.332;2023-07-29T06:45:03;100435.09;;;21.44;88.13
19096;BME280;9680;52.520;13.332;2023-07-29T06:47:30;100447.22;;;21.56;87.70
19096;BME280;9680;52.520;13.332;2023-07-29T06:49:57;100434.19;;;21.74;87.07
19096;BME280;9680;52.520;13.332;2023-07-29T06:52:24;100439.47;;;21.94;86.48
19096;BME280;9680;52.520;13.332;2023-07-29T06:54:50;100442.28;;;22.12;85.63
19096;BME280;9680;52.520;13.332;2023-07-29T06:57:18;100448.94;;;22.36;84.86
19096;BME280;9680;52.520;13.332;2023-07-29T06:59:45;100452.41;;;22.66;84.01
19096;BME280;9680;52.520;13.332;2023-07-29T07:02:12;100455.41;;;22.81;82.57
19096;BME280;9680;52.520;13.332;2023-07-29T07:04:39;100453.59;;;22.81;81.48
19096;BME280;9680;52.520;13.332;2023-07-29T07:07:06;100444.97;;;22.69;80.93
19096;BME280;9680;52.520;13.332;2023-07-29T07:09:33;100449.84;;;22.74;81.27
19096;BME280;9680;52.520;13.332;2023-07-29T07:11:59;100448.88;;;23.03;81.50
19096;BME280;9680;52.520;13.332;2023-07-29T07:14:30;100445.28;;;23.32;80.40
19096;BME280;9680;52.520;13.332;2023-07-29T07:16:56;100447.81;;;23.52;79.55
19096;BME280;9680;52.520;13.332;2023-07-29T07:19:23;100448.75;;;23.61;78.37
19096;BME280;9680;52.520;13.332;2023-07-29T07:21:50;100443.09;;;23.46;77.26
19096;BME280;9680;52.520;13.332;2023-07-29T07:24:17;100452.88;;;23.27;76.66
19096;BME280;9680;52.520;13.332;2023-07-29T07:26:44;100448.81;;;23.23;77.11
19096;BME280;9680;52.520;13.332;2023-07-29T07:29:10;100452.28;;;23.33;77.54
19096;BME280;9680;52.520;13.332;2023-07-29T07:31:38;100443.53;;;23.41;77.11
19096;BME280;9680;52.520;13.332;2023-07-29T07:34:05;100444.41;;;23.60;76.98
19096;BME280;9680;52.520;13.332;2023-07-29T07:36:32;100445.06;;;23.80;75.99
19096;BME280;9680;52.520;13.332;2023-07-29T07:38:59;100443.72;;;23.76;75.46
19096;BME280;9680;52.520;13.332;2023-07-29T07:41:26;100434.22;;;24.09;75.15
19096;BME280;9680;52.520;13.332;2023-07-29T07:43:52;100424.81;;;24.41;74.24
19096;BME280;9680;52.520;13.332;2023-07-29T07:46:19;100421.47;;;24.66;73.61
19096;BME280;9680;52.520;13.332;2023-07-29T07:48:47;100424.59;;;24.88;72.24
19096;BME280;9680;52.520;13.332;2023-07-29T07:51:14;100422.31;;;25.01;72.11
19096;BME280;9680;52.520;13.332;2023-07-29T07:53:41;100418.44;;;24.87;70.42
19096;BME280;9680;52.520;13.332;2023-07-29T07:56:08;100410.44;;;24.87;71.09
19096;BME280;9680;52.520;13.332;2023-07-29T07:58:34;100404.31;;;24.95;71.20
19096;BME280;9680;52.520;13.332;2023-07-29T08:01:02;100411.19;;;25.14;70.91
19096;BME280;9680;52.520;13.332;2023-07-29T08:03:29;100405.41;;;25.19;69.51
19096;BME280;9680;52.520;13.332;2023-07-29T08:05:58;100409.63;;;24.95;68.93
19096;BME280;9680;52.520;13.332;2023-07-29T08:08:25;100408.94;;;24.58;69.99
19096;BME280;9680;52.520;13.332;2023-07-29T08:10:52;100409.56;;;24.52;70.99
19096;BME280;9680;52.520;13.332;2023-07-29T08:13:19;100413.31;;;24.67;70.93
19096;BME280;9680;52.520;13.332;2023-07-29T08:15:47;100409.56;;;24.78;70.49
19096;BME280;9680;52.520;13.332;2023-07-29T08:18:14;100407.31;;;25.00;70.54
19096;BME280;9680;52.520;13.332;2023-07-29T08:20:41;100408.06;;;25.19;69.00
19096;BME280;9680;52.520;13.332;2023-07-29T08:23:09;100404.75;;;25.33;69.25
19096;BME280;9680;52.520;13.332;2023-07-29T08:25:35;100406.59;;;25.41;68.48
19096;BME280;9680;52.520;13.332;2023-07-29T08:28:02;100405.00;;;25.56;68.50
19096;BME280;9680;52.520;13.332;2023-07-29T08:30:30;100406.34;;;25.69;67.08
19096;BME280;9680;52.520;13.332;2023-07-29T08:32:57;100399.16;;;25.69;67.49
19096;BME280;9680;52.520;13.332;2023-07-29T08:35:23;100389.34;;;25.70;67.08
19096;BME280;9680;52.520;13.332;2023-07-29T08:37:50;100387.81;;;25.84;67.26
19096;BME280;9680;52.520;13.332;2023-07-29T08:40:22;100387.50;;;26.03;66.47
19096;BME280;9680;52.520;13.332;2023-07-29T08:42:54;100394.16;;;26.24;65.89
19096;BME280;9680;52.520;13.332;2023-07-29T08:45:25;100385.09;;;26.42;65.87
19096;BME280;9680;52.520;13.332;2023-07-29T08:47:54;100390.13;;;26.37;64.98
19096;BME280;9680;52.520;13.332;2023-07-29T08:50:24;100391.16;;;26.19;64.76
19096;BME280;9680;52.520;13.332;2023-07-29T08:52:52;100391.00;;;25.79;65.18
19096;BME280;9680;52.520;13.332;2023-07-29T08:55:21;100386.66;;;25.53;65.73
19096;BME280;9680;52.520;13.332;2023-07-29T08:57:48;100381.25;;;25.45;66.38
19096;BME280;9680;52.520;13.332;2023-07-29T09:00:15;100386.16;;;25.58;66.19
19096;BME280;9680;52.520;13.332;2023-07-29T09:02:42;100385.16;;;25.84;66.16
19096;BME280;9680;52.520;13.332;2023-07-29T09:05:09;100382.31;;;26.02;65.98
19096;BME280;9680;52.520;13.332;2023-07-29T09:07:36;100377.47;;;26.22;65.12
19096;BME280;9680;52.520;13.332;2023-07-29T09:10:08;100380.31;;;26.29;64.10
19096;BME280;9680;52.520;13.332;2023-07-29T09:12:37;100377.75;;;26.44;64.24
19096;BME280;9680;52.520;13.332;2023-07-29T09:15:07;100373.19;;;26.61;64.13
19096;BME280;9680;52.520;13.332;2023-07-29T09:17:36;100375.13;;;26.75;64.02
19096;BME280;9680;52.520;13.332;2023-07-29T09:20:03;100367.44;;;26.89;63.03
19096;BME280;9680;52.520;13.332;2023-07-29T09:22:30;100361.59;;;26.85;62.47
19096;BME280;9680;52.520;13.332;2023-07-29T09:24:57;100362.91;;;26.81;62.10
19096;BME280;9680;52.520;13.332;2023-07-29T09:27:24;100359.75;;;26.78;62.29
19096;BME280;9680;52.520;13.332;2023-07-29T09:29:53;100358.44;;;26.73;61.83
19096;BME280;9680;52.520;13.332;2023-07-29T09:32:21;100358.09;;;26.77;61.85
19096;BME280;9680;52.520;13.332;2023-07-29T09:34:48;100349.50;;;26.98;61.49
19096;BME280;9680;52.520;13.332;2023-07-29T09:37:16;100352.50;;;27.26;61.00
19096;BME280;9680;52.520;13.332;2023-07-29T09:39:47;100342.13;;;27.55;60.50
19096;BME280;9680;52.520;13.332;2023-07-29T09:42:18;100336.41;;;27.58;59.80
19096;BME280;9680;52.520;13.332;2023-07-29T09:44:45;100334.09;;;27.55;59.87
19096;BME280;9680;52.520;13.332;2023-07-29T09:47:20;100340.66;;;27.44;59.68
19096;BME280;9680;52.520;13.332;2023-07-29T09:49:48;100334.94;;;27.32;60.19
19096;BME280;9680;52.520;13.332;2023-07-29T09:52:15;100331.41;;;27.31;60.41
19096;BME280;9680;52.520;13.332;2023-07-29T09:54:43;100330.88;;;27.36;60.08
19096;BME280;9680;52.520;13.332;2023-07-29T09:57:10;100319.91;;;27.54;60.20
19096;BME280;9680;52.520;13.332;2023-07-29T09:59:37;100318.47;;;27.82;59.88
19096;BME280;9680;52.520;13.332;2023-07-29T10:02:04;100318.97;;;28.00;59.50
19096;BME280;9680;52.520;13.332;2023-07-29T10:04:34;100326.06;;;28.08;59.25
19096;BME280;9680;52.520;13.332;2023-07-29T10:07:01;100312.81;;;28.15;58.69
19096;BME280;9680;52.520;13.332;2023-07-29T10:09:29;100313.16;;;28.12;58.24
19096;BME280;9680;52.520;13.332;2023-07-29T10:11:57;100302.28;;;28.28;57.93
19096;BME280;9680;52.520;13.332;2023-07-29T10:14:24;100303.56;;;28.47;57.04
19096;BME280;9680;52.520;13.332;2023-07-29T10:16:52;100308.31;;;28.67;56.64
19096;BME280;9680;52.520;13.332;2023-07-29T10:19:19;100302.69;;;28.62;55.85
19096;BME280;9680;52.520;13.332;2023-07-29T10:21:48;100300.72;;;28.34;56.46
19096;BME280;9680;52.520;13.332;2023-07-29T10:24:19;100298.38;;;27.86;56.89
19096;BME280;9680;52.520;13.332;2023-07-29T10:26:49;100290.16;;;27.49;58.13
19096;BME280;9680;52.520;13.332;2023-07-29T10:29:19;100291.38;;;27.23;58.93
19096;BME280;9680;52.520;13.332;2023-07-29T10:31:49;100288.91;;;27.22;59.19
19096;BME280;9680;52.520;13.332;2023-07-29T10:34:19;100278.88;;;27.39;59.39
19096;BME280;9680;52.520;13.332;2023-07-29T10:36:50;100276.31;;;27.69;58.59
19096;BME280;9680;52.520;13.332;2023-07-29T10:39:17;100276.03;;;27.94;57.93
19096;BME280;9680;52.520;13.332;2023-07-29T10:41:58;100272.66;;;28.15;57.15
19096;BME280;9680;52.520;13.332;2023-07-29T10:44:50;100261.69;;;28.25;56.83
19096;BME280;9680;52.520;13.332;2023-07-29T10:47:20;100254.03;;;28.22;56.69
19096;BME280;9680;52.520;13.332;2023-07-29T10:49:50;100243.94;;;28.09;56.41
19096;BME280;9680;52.520;13.332;2023-07-29T10:52:30;100249.22;;;27.87;56.53
19096;BME280;9680;52.520;13.332;2023-07-29T10:54:58;100257.56;;;27.54;57.18
19096;BME280;9680;52.520;13.332;2023-07-29T10:57:32;100255.38;;;27.11;58.52
19096;BME280;9680;52.520;13.332;2023-07-29T10:59:59;100264.66;;;26.68;59.05
19096;BME280;9680;52.520;13.332;2023-07-29T11:02:34;100272.84;;;26.35;60.34
19096;BME280;9680;52.520;13.332;2023-07-29T11:05:05;100282.41;;;26.05;60.46
19096;BME280;9680;52.520;13.332;2023-07-29T11:07:45;100298.81;;;25.68;61.31
19096;BME280;9680;52.520;13.332;2023-07-29T11:10:12;100323.28;;;25.30;61.67
19096;BME280;9680;52.520;13.332;2023-07-29T11:12:41;100358.44;;;24.75;68.09
19096;BME280;9680;52.520;13.332;2023-07-29T11:15:18;100354.50;;;23.09;76.61
19096;BME280;9680;52.520;13.332;2023-07-29T11:17:46;100332.03;;;21.50;84.13
19096;BME280;9680;52.520;13.332;2023-07-29T11:20:14;100302.56;;;19.91;100.00
19096;BME280;9680;52.520;13.332;2023-07-29T11:22:41;100326.25;;;19.28;100.00
19096;BME280;9680;52.520;13.332;2023-07-29T11:25:11;100336.03;;;19.37;100.00
19096;BME280;9680;52.520;13.332;2023-07-29T11:27:38;100334.22;;;19.49;100.00
19096;BME280;9680;52.520;13.332;2023-07-29T11:30:09;100333.16;;;19.40;100.00
19096;BME280;9680;52.520;13.332;2023-07-29T11:32:37;100334.75;;;19.31;100.00
19096;BME280;9680;52.520;13.332;2023-07-29T11:35:04;100331.41;;;19.18;100.00
19096;BME280;9680;52.520;13.332;2023-07-29T11:37:33;100328.56;;;19.10;100.00
19096;BME280;9680;52.520;13.332;2023-07-29T11:40:00;100313.91;;;19.17;100.00
19096;BME280;9680;52.520;13.332;2023-07-29T11:42:32;100319.53;;;19.24;100.00
19096;BME280;9680;52.520;13.332;2023-07-29T11:44:59;100313.75;;;19.30;100.00
19096;BME280;9680;52.520;13.332;2023-07-29T11:47:26;100312.56;;;19.55;100.00
19096;BME280;9680;52.520;13.332;2023-07-29T11:49:58;100321.69;;;19.84;100.00
19096;BME280;9680;52.520;13.332;2023-07-29T11:52:27;100320.28;;;20.01;100.00
19096;BME280;9680;52.520;13.332;2023-07-29T11:54:53;100299.81;;;19.82;100.00
19096;BME280;9680;52.520;13.332;2023-07-29T11:57:20;100308.72;;;19.81;100.00
19096;BME280;9680;52.520;13.332;2023-07-29T11:59:49;100291.06;;;20.02;100.00
19096;BME280;9680;52.520;13.332;2023-07-29T12:02:17;100295.19;;;20.16;100.00
19096;BME280;9680;52.520;13.332;2023-07-29T12:04:47;100298.06;;;20.34;100.00
19096;BME280;9680;52.520;13.332;2023-07-29T12:07:16;100302.81;;;20.50;100.00
19096;BME280;9680;52.520;13.332;2023-07-29T12:09:44;100307.78;;;20.65;100.00
19096;BME280;9680;52.520;13.332;2023-07-29T12:12:11;100313.06;;;20.75;100.00
19096;BME280;9680;52.520;13.332;2023-07-29T12:14:38;100319.03;;;20.88;100.00
19096;BME280;9680;52.520;13.332;2023-07-29T12:17:06;100312.19;;;21.05;100.00
19096;BME280;9680;52.520;13.332;2023-07-29T12:19:37;100310.94;;;21.09;100.00
19096;BME280;9680;52.520;13.332;2023-07-29T12:22:06;100312.38;;;21.23;100.00
19096;BME280;9680;52.520;13.332;2023-07-29T12:24:35;100311.25;;;21.36;100.00
19096;BME280;9680;52.520;13.332;2023-07-29T12:27:02;100318.09;;;21.48;100.00
19096;BME280;9680;52.520;13.332;2023-07-29T12:29:28;100312.25;;;21.64;100.00
19096;BME280;9680;52.520;13.332;2023-07-29T12:31:59;100322.00;;;21.84;100.00
19096;BME280;9680;52.520;13.332;2023-07-29T12:34:29;100312.50;;;22.01;100.00
19096;BME280;9680;52.520;13.332;2023-07-29T12:36:58;100311.94;;;22.35;100.00
19096;BME280;9680;52.520;13.332;2023-07-29T12:39:26;100313.13;;;22.60;100.00
19096;BME280;9680;52.520;13.332;2023-07-29T12:41:55;100315.94;;;23.05;100.00
19096;BME280;9680;52.520;13.332;2023-07-29T12:44:23;100307.56;;;23.46;100.00
19096;BME280;9680;52.520;13.332;2023-07-29T12:46:50;100296.59;;;23.67;100.00
19096;BME280;9680;52.520;13.332;2023-07-29T12:49:16;100292.91;;;23.86;100.00
19096;BME280;9680;52.520;13.332;2023-07-29T12:51:45;100278.50;;;24.23;100.00
19096;BME280;9680;52.520;13.332;2023-07-29T12:54:11;100267.75;;;24.33;100.00